Terminal Aerodrome Forecast
Issued by NWS

Home | Current Version | Previous Version | Text Only | Print | Product List | Glossary Off
Versions: 1 2 3 4 5 6 7 8 9 10 11 12 13 14 15 16 17 18

000
FTUS43 KMPX 161629 AAA
TAFRWF
TAF AMD
KRWF 161629Z 1616/1712 01004KT 5SM BR SCT005 BKN060
      TEMPO 1616/1618 BKN005
     FM162100 01005KT P6SM OVC015
     FM170700 VRB03KT 5SM BR OVC008=

USA.gov is the U.S. government's official web portal to all federal, state and local government web resources and services.